sensor_id;sensor_type;location;lat;lon;timestamp;temperature;humidity
17423;DHT22;8829;47.932;7.810;2023-02-15T00:00:53;-1.00;99.90
17423;DHT22;8829;47.932;7.810;2023-02-15T00:03:21;-1.00;99.90
17423;DHT22;8829;47.932;7.810;2023-02-15T00:05:49;-0.90;99.90
17423;DHT22;8829;47.932;7.810;2023-02-15T00:08:15;-0.90;99.90
17423;DHT22;8829;47.932;7.810;2023-02-15T00:10:42;-0.80;99.90
17423;DHT22;8829;47.932;7.810;2023-02-15T00:13:09;-0.80;99.90
17423;DHT22;8829;47.932;7.810;2023-02-15T00:15:35;-0.80;99.90
17423;DHT22;8829;47.932;7.810;2023-02-15T00:18:02;-0.60;99.90
17423;DHT22;8829;47.932;7.810;2023-02-15T00:20:29;-0.60;99.90
17423;DHT22;8829;47.932;7.810;2023-02-15T00:22:57;-0.40;99.90
17423;DHT22;8829;47.932;7.810;2023-02-15T00:25:23;-0.20;99.90
17423;DHT22;8829;47.932;7.810;2023-02-15T00:27:50;-0.30;99.90
17423;DHT22;8829;47.932;7.810;2023-02-15T00:30:17;-0.30;99.90
17423;DHT22;8829;47.932;7.810;2023-02-15T00:32:43;-0.30;99.90
17423;DHT22;8829;47.932;7.810;2023-02-15T00:35:11;-0.10;99.90
17423;DHT22;8829;47.932;7.810;2023-02-15T00:37:38;-0.20;99.90
17423;DHT22;8829;47.932;7.810;2023-02-15T00:40:07;0.00;99.90
17423;DHT22;8829;47.932;7.810;2023-02-15T00:42:34;0.10;99.90
17423;DHT22;8829;47.932;7.810;2023-02-15T00:45:00;0.90;99.90
17423;DHT22;8829;47.932;7.810;2023-02-15T00:47:27;0.00;99.90
17423;DHT22;8829;47.932;7.810;2023-02-15T00:49:54;0.00;99.90
17423;DHT22;8829;47.932;7.810;2023-02-15T00:52:20;-0.10;99.90
17423;DHT22;8829;47.932;7.810;2023-02-15T00:54:47;-0.10;99.90
17423;DHT22;8829;47.932;7.810;2023-02-15T00:57:15;-0.10;99.90
17423;DHT22;8829;47.932;7.810;2023-02-15T00:59:42;-0.20;99.90
17423;DHT22;8829;47.932;7.810;2023-02-15T01:02:08;-0.30;99.90
17423;DHT22;8829;47.932;7.810;2023-02-15T01:04:35;-0.20;99.90
17423;DHT22;8829;47.932;7.810;2023-02-15T01:07:02;-0.30;99.90
17423;DHT22;8829;47.932;7.810;2023-02-15T01:09:29;-0.30;99.90
17423;DHT22;8829;47.932;7.810;2023-02-15T01:11:55;-0.50;99.90
17423;DHT22;8829;47.932;7.810;2023-02-15T01:14:23;-0.80;99.90
17423;DHT22;8829;47.932;7.810;2023-02-15T01:16:50;-0.70;99.90
17423;DHT22;8829;47.932;7.810;2023-02-15T01:19:17;-0.60;99.90
17423;DHT22;8829;47.932;7.810;2023-02-15T01:21:43;-0.50;99.90
17423;DHT22;8829;47.932;7.810;2023-02-15T01:24:11;-0.40;99.90
17423;DHT22;8829;47.932;7.810;2023-02-15T01:26:38;-0.30;99.90
17423;DHT22;8829;47.932;7.810;2023-02-15T01:29:05;-0.30;99.90
17423;DHT22;8829;47.932;7.810;2023-02-15T01:31:33;-0.40;99.90
17423;DHT22;8829;47.932;7.810;2023-02-15T01:34:00;-0.40;99.90
17423;DHT22;8829;47.932;7.810;2023-02-15T01:36:27;-0.40;99.90
17423;DHT22;8829;47.932;7.810;2023-02-15T01:38:53;-0.40;99.90
17423;DHT22;8829;47.932;7.810;2023-02-15T01:41:20;-0.60;99.90
17423;DHT22;8829;47.932;7.810;2023-02-15T01:43:51;-0.60;99.90
17423;DHT22;8829;47.932;7.810;2023-02-15T01:46:22;-0.60;99.90
17423;DHT22;8829;47.932;7.810;2023-02-15T01:48:53;-0.60;99.90
17423;DHT22;8829;47.932;7.810;2023-02-15T01:51:23;-0.50;99.90
17423;DHT22;8829;47.932;7.810;2023-02-15T01:53:55;-0.50;99.90
17423;DHT22;8829;47.932;7.810;2023-02-15T01:56:25;-0.50;99.90
17423;DHT22;8829;47.932;7.810;2023-02-15T01:58:54;-0.50;99.90
17423;DHT22;8829;47.932;7.810;2023-02-15T02:01:24;-0.70;99.90
17423;DHT22;8829;47.932;7.810;2023-02-15T02:03:59;-1.10;99.90
17423;DHT22;8829;47.932;7.810;2023-02-15T02:06:27;-1.20;99.90
17423;DHT22;8829;47.932;7.810;2023-02-15T02:08:54;-1.10;99.90
17423;DHT22;8829;47.932;7.810;2023-02-15T02:11:22;-1.00;99.90
17423;DHT22;8829;47.932;7.810;2023-02-15T02:13:50;-1.00;99.90
17423;DHT22;8829;47.932;7.810;2023-02-15T02:16:23;-1.00;99.90
17423;DHT22;8829;47.932;7.810;2023-02-15T02:19:05;-1.20;99.90
17423;DHT22;8829;47.932;7.810;2023-02-15T02:21:47;-1.20;99.90
17423;DHT22;8829;47.932;7.810;2023-02-15T02:24:42;-1.10;99.90
17423;DHT22;8829;47.932;7.810;2023-02-15T02:27:25;-1.00;99.90
17423;DHT22;8829;47.932;7.810;2023-02-15T02:30:30;-0.90;99.90
17423;DHT22;8829;47.932;7.810;2023-02-15T02:33:26;-0.90;99.90
17423;DHT22;8829;47.932;7.810;2023-02-15T02:36:03;-1.10;99.90
17423;DHT22;8829;47.932;7.810;2023-02-15T02:38:42;-1.00;99.90
17423;DHT22;8829;47.932;7.810;2023-02-15T02:41:16;-1.00;99.90
17423;DHT22;8829;47.932;7.810;2023-02-15T02:43:48;-1.30;99.90
17423;DHT22;8829;47.932;7.810;2023-02-15T02:46:22;-1.70;99.90
17423;DHT22;8829;47.932;7.810;2023-02-15T02:48:52;-1.90;99.90
17423;DHT22;8829;47.932;7.810;2023-02-15T02:51:19;-2.00;99.90
17423;DHT22;8829;47.932;7.810;2023-02-15T02:53:50;-2.00;99.90
17423;DHT22;8829;47.932;7.810;2023-02-15T02:56:22;-2.10;99.90
17423;DHT22;8829;47.932;7.810;2023-02-15T02:58:54;-2.00;99.90
17423;DHT22;8829;47.932;7.810;2023-02-15T03:01:25;-1.80;99.90
17423;DHT22;8829;47.932;7.810;2023-02-15T03:03:57;-1.60;99.90
17423;DHT22;8829;47.932;7.810;2023-02-15T03:06:28;-1.40;99.90
17423;DHT22;8829;47.932;7.810;2023-02-15T03:08:58;-1.40;99.90
17423;DHT22;8829;47.932;7.810;2023-02-15T03:11:27;-1.40;99.90
17423;DHT22;8829;47.932;7.810;2023-02-15T03:13:54;-1.40;99.90
17423;DHT22;8829;47.932;7.810;2023-02-15T03:16:21;-1.60;99.90
17423;DHT22;8829;47.932;7.810;2023-02-15T03:18:58;-1.60;99.90
17423;DHT22;8829;47.932;7.810;2023-02-15T03:21:38;-1.80;99.90
17423;DHT22;8829;47.932;7.810;2023-02-15T03:24:08;-1.70;99.90
17423;DHT22;8829;47.932;7.810;2023-02-15T03:26:37;-1.60;99.90
17423;DHT22;8829;47.932;7.810;2023-02-15T03:29:06;-1.90;99.90
17423;DHT22;8829;47.932;7.810;2023-02-15T03:31:37;-2.20;99.90
17423;DHT22;8829;47.932;7.810;2023-02-15T03:34:08;-2.20;99.90
17423;DHT22;8829;47.932;7.810;2023-02-15T03:36:40;-2.10;99.90
17423;DHT22;8829;47.932;7.810;2023-02-15T03:39:13;-2.20;99.90
17423;DHT22;8829;47.932;7.810;2023-02-15T03:41:46;-2.30;99.90
17423;DHT22;8829;47.932;7.810;2023-02-15T03:44:18;-2.10;99.90
17423;DHT22;8829;47.932;7.810;2023-02-15T03:46:53;-2.10;99.90
17423;DHT22;8829;47.932;7.810;2023-02-15T03:49:24;-2.10;99.90
17423;DHT22;8829;47.932;7.810;2023-02-15T03:51:56;-2.20;99.90
17423;DHT22;8829;47.932;7.810;2023-02-15T03:54:25;-2.20;99.90
17423;DHT22;8829;47.932;7.810;2023-02-15T03:57:11;-2.10;99.90
17423;DHT22;8829;47.932;7.810;2023-02-15T03:59:56;-2.40;99.90
17423;DHT22;8829;47.932;7.810;2023-02-15T04:02:53;-2.60;99.90
17423;DHT22;8829;47.932;7.810;2023-02-15T04:05:23;-2.40;99.90
17423;DHT22;8829;47.932;7.810;2023-02-15T04:07:50;-2.40;99.90
17423;DHT22;8829;47.932;7.810;2023-02-15T04:10:17;-2.20;99.90
17423;DHT22;8829;47.932;7.810;2023-02-15T04:13:01;-2.10;99.90
17423;DHT22;8829;47.932;7.810;2023-02-15T04:15:28;-2.50;99.90
17423;DHT22;8829;47.932;7.810;2023-02-15T04:18:12;-2.60;99.90
17423;DHT22;8829;47.932;7.810;2023-02-15T04:20:43;-2.60;99.90
17423;DHT22;8829;47.932;7.810;2023-02-15T04:23:27;-2.90;99.90
17423;DHT22;8829;47.932;7.810;2023-02-15T04:26:11;-2.90;99.90
17423;DHT22;8829;47.932;7.810;2023-02-15T04:28:38;-3.00;99.90
17423;DHT22;8829;47.932;7.810;2023-02-15T04:31:04;-3.00;99.90
17423;DHT22;8829;47.932;7.810;2023-02-15T04:33:31;-2.90;99.90
17423;DHT22;8829;47.932;7.810;2023-02-15T04:35:59;-2.80;99.90
17423;DHT22;8829;47.932;7.810;2023-02-15T04:38:26;-2.50;99.90
17423;DHT22;8829;47.932;7.810;2023-02-15T04:40:53;-2.30;99.90
17423;DHT22;8829;47.932;7.810;2023-02-15T04:43:19;-2.20;99.90
17423;DHT22;8829;47.932;7.810;2023-02-15T04:45:50;-2.20;99.90
17423;DHT22;8829;47.932;7.810;2023-02-15T04:48:17;-2.20;99.90
17423;DHT22;8829;47.932;7.810;2023-02-15T04:50:44;-2.10;99.90
17423;DHT22;8829;47.932;7.810;2023-02-15T04:53:12;-2.00;99.90
17423;DHT22;8829;47.932;7.810;2023-02-15T04:55:39;-2.20;99.90
17423;DHT22;8829;47.932;7.810;2023-02-15T04:58:05;-2.30;99.90
17423;DHT22;8829;47.932;7.810;2023-02-15T05:00:32;-2.30;99.90
17423;DHT22;8829;47.932;7.810;2023-02-15T05:02:59;-2.30;99.90
17423;DHT22;8829;47.932;7.810;2023-02-15T05:05:25;-2.20;99.90
17423;DHT22;8829;47.932;7.810;2023-02-15T05:07:52;-2.10;99.90
17423;DHT22;8829;47.932;7.810;2023-02-15T05:10:20;-2.10;99.90
17423;DHT22;8829;47.932;7.810;2023-02-15T05:12:47;-2.00;99.90
17423;DHT22;8829;47.932;7.810;2023-02-15T05:15:14;-1.90;99.90
17423;DHT22;8829;47.932;7.810;2023-02-15T05:17:40;-1.80;99.90
17423;DHT22;8829;47.932;7.810;2023-02-15T05:20:07;-1.80;99.90
17423;DHT22;8829;47.932;7.810;2023-02-15T05:22:34;-1.90;99.90
17423;DHT22;8829;47.932;7.810;2023-02-15T05:25:01;-1.80;99.90
17423;DHT22;8829;47.932;7.810;2023-02-15T05:27:46;-1.70;99.90
17423;DHT22;8829;47.932;7.810;2023-02-15T05:30:31;-1.70;99.90
17423;DHT22;8829;47.932;7.810;2023-02-15T05:32:57;-1.60;99.90
17423;DHT22;8829;47.932;7.810;2023-02-15T05:35:24;-1.60;99.90
17423;DHT22;8829;47.932;7.810;2023-02-15T05:37:51;-1.60;99.90
17423;DHT22;8829;47.932;7.810;2023-02-15T05:40:18;-1.70;99.90
17423;DHT22;8829;47.932;7.810;2023-02-15T05:42:44;-1.80;99.90
17423;DHT22;8829;47.932;7.810;2023-02-15T05:45:12;-2.20;99.90
17423;DHT22;8829;47.932;7.810;2023-02-15T05:47:39;-2.60;99.90
17423;DHT22;8829;47.932;7.810;2023-02-15T05:50:06;-2.60;99.90
17423;DHT22;8829;47.932;7.810;2023-02-15T05:52:33;-2.30;99.90
17423;DHT22;8829;47.932;7.810;2023-02-15T05:55:00;-2.20;99.90
17423;DHT22;8829;47.932;7.810;2023-02-15T05:57:28;-2.20;99.90
17423;DHT22;8829;47.932;7.810;2023-02-15T05:59:54;-2.10;99.90
17423;DHT22;8829;47.932;7.810;2023-02-15T06:02:22;-2.30;99.90
17423;DHT22;8829;47.932;7.810;2023-02-15T06:04:49;-2.30;99.90
17423;DHT22;8829;47.932;7.810;2023-02-15T06:07:16;-2.10;99.90
17423;DHT22;8829;47.932;7.810;2023-02-15T06:09:43;-2.00;99.90
17423;DHT22;8829;47.932;7.810;2023-02-15T06:12:09;-1.90;99.90
17423;DHT22;8829;47.932;7.810;2023-02-15T06:14:36;-1.90;99.90
17423;DHT22;8829;47.932;7.810;2023-02-15T06:17:03;-2.00;99.90
17423;DHT22;8829;47.932;7.810;2023-02-15T06:19:31;-2.00;99.90
17423;DHT22;8829;47.932;7.810;2023-02-15T06:21:57;-1.90;99.90
17423;DHT22;8829;47.932;7.810;2023-02-15T06:24:24;-1.90;99.90
17423;DHT22;8829;47.932;7.810;2023-02-15T06:26:51;-1.80;99.90
17423;DHT22;8829;47.932;7.810;2023-02-15T06:29:17;-1.70;99.90
17423;DHT22;8829;47.932;7.810;2023-02-15T06:31:44;-1.70;99.90
17423;DHT22;8829;47.932;7.810;2023-02-15T06:34:11;-1.70;99.90
17423;DHT22;8829;47.932;7.810;2023-02-15T06:36:39;-1.80;99.90
17423;DHT22;8829;47.932;7.810;2023-02-15T06:39:05;-1.90;99.90
17423;DHT22;8829;47.932;7.810;2023-02-15T06:41:32;-1.80;99.90
17423;DHT22;8829;47.932;7.810;2023-02-15T06:43:59;-1.70;99.90
17423;DHT22;8829;47.932;7.810;2023-02-15T06:46:26;-1.70;99.90
17423;DHT22;8829;47.932;7.810;2023-02-15T06:48:52;-1.70;99.90
17423;DHT22;8829;47.932;7.810;2023-02-15T06:51:19;-1.80;99.90
17423;DHT22;8829;47.932;7.810;2023-02-15T06:53:47;-1.70;99.90
17423;DHT22;8829;47.932;7.810;2023-02-15T06:56:14;-1.80;99.90
17423;DHT22;8829;47.932;7.810;2023-02-15T06:58:41;-1.90;99.90
17423;DHT22;8829;47.932;7.810;2023-02-15T07:01:09;-2.20;99.90
17423;DHT22;8829;47.932;7.810;2023-02-15T07:03:35;-2.20;99.90
17423;DHT22;8829;47.932;7.810;2023-02-15T07:06:03;-2.00;99.90
17423;DHT22;8829;47.932;7.810;2023-02-15T07:08:33;-1.90;99.90
17423;DHT22;8829;47.932;7.810;2023-02-15T07:11:02;-1.80;99.90
17423;DHT22;8829;47.932;7.810;2023-02-15T07:13:42;-1.90;99.90
17423;DHT22;8829;47.932;7.810;2023-02-15T07:16:09;-2.00;99.90
17423;DHT22;8829;47.932;7.810;2023-02-15T07:18:36;-2.20;99.90
17423;DHT22;8829;47.932;7.810;2023-02-15T07:21:03;-2.30;99.90
17423;DHT22;8829;47.932;7.810;2023-02-15T07:23:30;-2.20;99.90
17423;DHT22;8829;47.932;7.810;2023-02-15T07:25:57;-2.20;99.90
17423;DHT22;8829;47.932;7.810;2023-02-15T07:28:25;-2.00;99.90
17423;DHT22;8829;47.932;7.810;2023-02-15T07:30:52;-1.90;99.90
17423;DHT22;8829;47.932;7.810;2023-02-15T07:33:19;-1.70;99.90
17423;DHT22;8829;47.932;7.810;2023-02-15T07:35:53;-1.80;99.90
17423;DHT22;8829;47.932;7.810;2023-02-15T07:38:21;-1.80;99.90
17423;DHT22;8829;47.932;7.810;2023-02-15T07:40:48;-1.80;99.90
17423;DHT22;8829;47.932;7.810;2023-02-15T07:43:14;-1.70;99.90
17423;DHT22;8829;47.932;7.810;2023-02-15T07:45:42;-1.60;99.90
17423;DHT22;8829;47.932;7.810;2023-02-15T07:48:09;-1.60;99.90
17423;DHT22;8829;47.932;7.810;2023-02-15T07:50:36;-1.70;99.90
17423;DHT22;8829;47.932;7.810;2023-02-15T07:53:03;-2.10;99.90
17423;DHT22;8829;47.932;7.810;2023-02-15T07:55:30;-2.30;99.90
17423;DHT22;8829;47.932;7.810;2023-02-15T07:57:56;-2.20;99.90
17423;DHT22;8829;47.932;7.810;2023-02-15T08:00:23;-2.30;99.90
17423;DHT22;8829;47.932;7.810;2023-02-15T08:02:53;-2.10;99.90
17423;DHT22;8829;47.932;7.810;2023-02-15T08:05:34;-1.90;99.90
17423;DHT22;8829;47.932;7.810;2023-02-15T08:08:01;-1.70;99.90
17423;DHT22;8829;47.932;7.810;2023-02-15T08:10:27;-1.60;99.90
17423;DHT22;8829;47.932;7.810;2023-02-15T08:13:08;-1.50;99.90
17423;DHT22;8829;47.932;7.810;2023-02-15T08:15:35;-1.50;99.90
17423;DHT22;8829;47.932;7.810;2023-02-15T08:18:03;-1.60;99.90
17423;DHT22;8829;47.932;7.810;2023-02-15T08:20:30;-1.50;99.90
17423;DHT22;8829;47.932;7.810;2023-02-15T08:22:56;-1.60;99.90
17423;DHT22;8829;47.932;7.810;2023-02-15T08:25:23;-1.90;99.90
17423;DHT22;8829;47.932;7.810;2023-02-15T08:27:50;-2.10;99.90
17423;DHT22;8829;47.932;7.810;2023-02-15T08:30:16;-1.90;99.90
17423;DHT22;8829;47.932;7.810;2023-02-15T08:32:43;-1.70;99.90
17423;DHT22;8829;47.932;7.810;2023-02-15T08:35:11;-1.60;99.90
17423;DHT22;8829;47.932;7.810;2023-02-15T08:37:38;-1.50;99.90
17423;DHT22;8829;47.932;7.810;2023-02-15T08:40:05;-1.40;99.90
17423;DHT22;8829;47.932;7.810;2023-02-15T08:42:32;-1.30;99.90
17423;DHT22;8829;47.932;7.810;2023-02-15T08:44:59;-1.20;99.90
17423;DHT22;8829;47.932;7.810;2023-02-15T08:47:26;-1.30;99.90
17423;DHT22;8829;47.932;7.810;2023-02-15T08:49:52;-1.20;99.90
17423;DHT22;8829;47.932;7.810;2023-02-15T08:52:20;-1.30;99.90
17423;DHT22;8829;47.932;7.810;2023-02-15T08:54:47;-1.20;99.90
17423;DHT22;8829;47.932;7.810;2023-02-15T08:57:14;-1.10;99.90
17423;DHT22;8829;47.932;7.810;2023-02-15T08:59:40;-1.00;99.90
17423;DHT22;8829;47.932;7.810;2023-02-15T09:02:10;-1.00;99.90
17423;DHT22;8829;47.932;7.810;2023-02-15T09:04:37;-1.00;99.90
17423;DHT22;8829;47.932;7.810;2023-02-15T09:07:03;-1.00;99.90
17423;DHT22;8829;47.932;7.810;2023-02-15T09:09:31;-0.80;99.90
17423;DHT22;8829;47.932;7.810;2023-02-15T09:11:58;-0.60;99.90
17423;DHT22;8829;47.932;7.810;2023-02-15T09:14:25;-0.40;99.90
17423;DHT22;8829;47.932;7.810;2023-02-15T09:16:52;-0.30;99.90
17423;DHT22;8829;47.932;7.810;2023-02-15T09:19:22;-0.20;99.90
17423;DHT22;8829;47.932;7.810;2023-02-15T09:21:48;0.00;99.90
17423;DHT22;8829;47.932;7.810;2023-02-15T09:24:16;0.40;99.90
17423;DHT22;8829;47.932;7.810;2023-02-15T09:26:47;1.00;99.90
17423;DHT22;8829;47.932;7.810;2023-02-15T09:29:15;1.80;99.90
17423;DHT22;8829;47.932;7.810;2023-02-15T09:31:43;2.30;99.90
17423;DHT22;8829;47.932;7.810;2023-02-15T09:34:11;2.30;99.90
17423;DHT22;8829;47.932;7.810;2023-02-15T09:36:39;2.30;99.90
17423;DHT22;8829;47.932;7.810;2023-02-15T09:39:09;2.80;99.90
17423;DHT22;8829;47.932;7.810;2023-02-15T09:41:58;3.50;99.90
17423;DHT22;8829;47.932;7.810;2023-02-15T09:44:37;3.90;99.90
17423;DHT22;8829;47.932;7.810;2023-02-15T09:47:30;3.70;99.90
17423;DHT22;8829;47.932;7.810;2023-02-15T09:50:06;3.40;99.90
17423;DHT22;8829;47.932;7.810;2023-02-15T09:52:54;3.10;99.90
17423;DHT22;8829;47.932;7.810;2023-02-15T09:55:32;3.10;99.90
17423;DHT22;8829;47.932;7.810;2023-02-15T09:58:07;3.10;99.90
17423;DHT22;8829;47.932;7.810;2023-02-15T10:00:46;3.00;99.90
17423;DHT22;8829;47.932;7.810;2023-02-15T10:03:33;2.90;99.90
17423;DHT22;8829;47.932;7.810;2023-02-15T10:06:17;2.70;99.90
17423;DHT22;8829;47.932;7.810;2023-02-15T10:08:57;2.90;99.90
17423;DHT22;8829;47.932;7.810;2023-02-15T10:11:32;2.90;99.90
17423;DHT22;8829;47.932;7.810;2023-02-15T10:17:14;2.50;99.90
17423;DHT22;8829;47.932;7.810;2023-02-15T10:19:48;2.60;99.90
17423;DHT22;8829;47.932;7.810;2023-02-15T10:22:28;2.70;99.90
17423;DHT22;8829;47.932;7.810;2023-02-15T10:25:19;2.90;99.90
17423;DHT22;8829;47.932;7.810;2023-02-15T10:27:50;2.80;99.90
17423;DHT22;8829;47.932;7.810;2023-02-15T10:30:26;2.90;99.90
17423;DHT22;8829;47.932;7.810;2023-02-15T10:32:59;2.80;99.90
17423;DHT22;8829;47.932;7.810;2023-02-15T10:35:33;2.90;99.90
17423;DHT22;8829;47.932;7.810;2023-02-15T10:38:10;3.00;99.90
17423;DHT22;8829;47.932;7.810;2023-02-15T10:40:46;3.10;99.90
17423;DHT22;8829;47.932;7.810;2023-02-15T10:43:28;3.30;99.90
17423;DHT22;8829;47.932;7.810;2023-02-15T10:46:07;3.40;99.90
17423;DHT22;8829;47.932;7.810;2023-02-15T10:48:57;3.60;99.90
17423;DHT22;8829;47.932;7.810;2023-02-15T10:51:36;3.60;99.90
17423;DHT22;8829;47.932;7.810;2023-02-15T10:54:18;3.70;99.90
17423;DHT22;8829;47.932;7.810;2023-02-15T10:56:53;3.80;99.90
17423;DHT22;8829;47.932;7.810;2023-02-15T10:59:43;3.90;99.90
17423;DHT22;8829;47.932;7.810;2023-02-15T11:02:20;3.90;99.90
17423;DHT22;8829;47.932;7.810;2023-02-15T11:04:55;4.00;99.90
17423;DHT22;8829;47.932;7.810;2023-02-15T11:07:32;4.10;99.90
17423;DHT22;8829;47.932;7.810;2023-02-15T11:10:05;4.20;99.90
17423;DHT22;8829;47.932;7.810;2023-02-15T11:12:33;4.30;99.90
17423;DHT22;8829;47.932;7.810;2023-02-15T11:15:03;4.40;99.90
17423;DHT22;8829;47.932;7.810;2023-02-15T11:17:36;4.50;99.90
17423;DHT22;8829;47.932;7.810;2023-02-15T11:20:09;4.60;99.90
17423;DHT22;8829;47.932;7.810;2023-02-15T11:22:41;4.60;99.90
17423;DHT22;8829;47.932;7.810;2023-02-15T11:25:17;4.60;99.90
17423;DHT22;8829;47.932;7.810;2023-02-15T11:27:45;4.70;99.90
17423;DHT22;8829;47.932;7.810;2023-02-15T11:30:15;4.70;99.90
17423;DHT22;8829;47.932;7.810;2023-02-15T11:32:44;4.80;99.90
17423;DHT22;8829;47.932;7.810;2023-02-15T11:35:21;4.90;99.90
17423;DHT22;8829;47.932;7.810;2023-02-15T11:37:51;5.00;99.90
17423;DHT22;8829;47.932;7.810;2023-02-15T11:40:23;5.10;99.90
17423;DHT22;8829;47.932;7.810;2023-02-15T11:42:53;5.10;99.90
17423;DHT22;8829;47.932;7.810;2023-02-15T11:45:26;5.10;99.90
17423;DHT22;8829;47.932;7.810;2023-02-15T11:47:55;5.20;99.90
17423;DHT22;8829;47.932;7.810;2023-02-15T11:50:25;5.20;99.90
17423;DHT22;8829;47.932;7.810;2023-02-15T11:52:54;5.30;99.90
17423;DHT22;8829;47.932;7.810;2023-02-15T11:55:23;5.20;99.90
17423;DHT22;8829;47.932;7.810;2023-02-15T11:57:53;5.30;99.90
17423;DHT22;8829;47.932;7.810;2023-02-15T12:00:29;5.20;99.90
17423;DHT22;8829;47.932;7.810;2023-02-15T12:03:07;5.30;99.90
17423;DHT22;8829;47.932;7.810;2023-02-15T12:05:37;5.40;99.90
17423;DHT22;8829;47.932;7.810;2023-02-15T12:08:14;5.40;99.90
17423;DHT22;8829;47.932;7.810;2023-02-15T12:10:46;5.40;99.90
17423;DHT22;8829;47.932;7.810;2023-02-15T12:13:17;5.40;99.90
17423;DHT22;8829;47.932;7.810;2023-02-15T12:15:46;5.50;99.90
17423;DHT22;8829;47.932;7.810;2023-02-15T12:18:35;5.60;99.90
17423;DHT22;8829;47.932;7.810;2023-02-15T12:21:06;5.70;99.90
17423;DHT22;8829;47.932;7.810;2023-02-15T12:23:34;5.70;99.90
17423;DHT22;8829;47.932;7.810;2023-02-15T12:26:06;5.80;99.90
17423;DHT22;8829;47.932;7.810;2023-02-15T12:28:34;5.80;99.90
17423;DHT22;8829;47.932;7.810;2023-02-15T12:31:03;5.90;99.90
17423;DHT22;8829;47.932;7.810;2023-02-15T12:33:36;6.00;99.90
17423;DHT22;8829;47.932;7.810;2023-02-15T12:36:11;6.10;99.90
17423;DHT22;8829;47.932;7.810;2023-02-15T12:38:38;6.20;99.90
17423;DHT22;8829;47.932;7.810;2023-02-15T12:41:22;6.30;99.90
17423;DHT22;8829;47.932;7.810;2023-02-15T12:44:03;6.30;99.90
17423;DHT22;8829;47.932;7.810;2023-02-15T12:46:30;6.50;99.90
17423;DHT22;8829;47.932;7.810;2023-02-15T12:49:07;6.50;99.90
17423;DHT22;8829;47.932;7.810;2023-02-15T12:51:47;6.70;99.90
17423;DHT22;8829;47.932;7.810;2023-02-15T12:54:33;6.80;99.90
17423;DHT22;8829;47.932;7.810;2023-02-15T12:57:22;6.90;99.90
17423;DHT22;8829;47.932;7.810;2023-02-15T12:59:51;7.10;99.90
17423;DHT22;8829;47.932;7.810;2023-02-15T13:02:26;7.10;99.90
17423;DHT22;8829;47.932;7.810;2023-02-15T13:04:55;7.20;99.90
17423;DHT22;8829;47.932;7.810;2023-02-15T13:07:25;7.30;99.90
17423;DHT22;8829;47.932;7.810;2023-02-15T13:09:57;7.30;99.90
17423;DHT22;8829;47.932;7.810;2023-02-15T13:12:25;7.30;99.90
17423;DHT22;8829;47.932;7.810;2023-02-15T13:14:54;7.30;99.90
17423;DHT22;8829;47.932;7.810;2023-02-15T13:17:24;7.40;99.90
17423;DHT22;8829;47.932;7.810;2023-02-15T13:19:57;7.40;99.90
17423;DHT22;8829;47.932;7.810;2023-02-15T13:22:28;7.40;99.90
17423;DHT22;8829;47.932;7.810;2023-02-15T13:25:01;7.40;99.90
17423;DHT22;8829;47.932;7.810;2023-02-15T13:27:34;7.40;99.90
17423;DHT22;8829;47.932;7.810;2023-02-15T13:30:08;7.40;99.90
17423;DHT22;8829;47.932;7.810;2023-02-15T13:32:38;7.30;99.90
17423;DHT22;8829;47.932;7.810;2023-02-15T13:35:14;7.30;99.90
17423;DHT22;8829;47.932;7.810;2023-02-15T13:37:51;7.30;99.90
17423;DHT22;8829;47.932;7.810;2023-02-15T13:40:25;7.30;99.90
17423;DHT22;8829;47.932;7.810;2023-02-15T13:42:55;7.30;99.90
17423;DHT22;8829;47.932;7.810;2023-02-15T13:45:33;7.30;99.90
17423;DHT22;8829;47.932;7.810;2023-02-15T13:48:13;7.30;99.90
17423;DHT22;8829;47.932;7.810;2023-02-15T13:50:54;7.40;99.90
17423;DHT22;8829;47.932;7.810;2023-02-15T13:53:41;7.40;99.90
17423;DHT22;8829;47.932;7.810;2023-02-15T13:56:17;7.40;99.90
17423;DHT22;8829;47.932;7.810;2023-02-15T13:59:12;7.50;99.90
17423;DHT22;8829;47.932;7.810;2023-02-15T14:01:46;7.50;99.90
17423;DHT22;8829;47.932;7.810;2023-02-15T14:04:36;7.70;99.90
17423;DHT22;8829;47.932;7.810;2023-02-15T14:07:30;7.80;99.90
17423;DHT22;8829;47.932;7.810;2023-02-15T14:10:16;7.90;99.90
17423;DHT22;8829;47.932;7.810;2023-02-15T14:12:57;8.00;99.90
17423;DHT22;8829;47.932;7.810;2023-02-15T14:15:34;8.00;99.90
17423;DHT22;8829;47.932;7.810;2023-02-15T14:18:10;8.20;99.90
17423;DHT22;8829;47.932;7.810;2023-02-15T14:20:51;8.20;99.90
17423;DHT22;8829;47.932;7.810;2023-02-15T14:23:29;8.30;99.90
17423;DHT22;8829;47.932;7.810;2023-02-15T14:26:02;8.40;99.90
17423;DHT22;8829;47.932;7.810;2023-02-15T14:28:35;8.40;99.90
17423;DHT22;8829;47.932;7.810;2023-02-15T14:31:08;8.40;99.90
17423;DHT22;8829;47.932;7.810;2023-02-15T14:33:38;8.50;99.90
17423;DHT22;8829;47.932;7.810;2023-02-15T14:36:07;8.70;99.90
17423;DHT22;8829;47.932;7.810;2023-02-15T14:38:48;8.90;99.90
17423;DHT22;8829;47.932;7.810;2023-02-15T14:41:20;9.00;99.90
17423;DHT22;8829;47.932;7.810;2023-02-15T14:43:52;9.00;99.90
17423;DHT22;8829;47.932;7.810;2023-02-15T14:46:27;9.00;99.90
17423;DHT22;8829;47.932;7.810;2023-02-15T14:49:03;9.10;99.90
17423;DHT22;8829;47.932;7.810;2023-02-15T14:52:03;9.10;99.90
17423;DHT22;8829;47.932;7.810;2023-02-15T14:54:54;9.10;99.90
17423;DHT22;8829;47.932;7.810;2023-02-15T14:57:26;9.10;99.90
17423;DHT22;8829;47.932;7.810;2023-02-15T14:59:56;9.20;99.90
17423;DHT22;8829;47.932;7.810;2023-02-15T15:02:26;9.20;99.90
17423;DHT22;8829;47.932;7.810;2023-02-15T15:05:02;9.30;99.90
17423;DHT22;8829;47.932;7.810;2023-02-15T15:07:40;9.20;99.90
17423;DHT22;8829;47.932;7.810;2023-02-15T15:10:34;9.20;99.90
17423;DHT22;8829;47.932;7.810;2023-02-15T15:13:35;9.10;99.90
17423;DHT22;8829;47.932;7.810;2023-02-15T15:16:26;9.10;99.90
17423;DHT22;8829;47.932;7.810;2023-02-15T15:18:54;9.10;99.90
17423;DHT22;8829;47.932;7.810;2023-02-15T15:21:52;9.10;99.90
17423;DHT22;8829;47.932;7.810;2023-02-15T15:24:48;9.20;99.90
17423;DHT22;8829;47.932;7.810;2023-02-15T15:27:39;9.20;99.90
17423;DHT22;8829;47.932;7.810;2023-02-15T15:33:55;9.20;99.90
17423;DHT22;8829;47.932;7.810;2023-02-15T15:37:00;9.10;99.90
17423;DHT22;8829;47.932;7.810;2023-02-15T15:40:07;9.00;99.90
17423;DHT22;8829;47.932;7.810;2023-02-15T15:42:48;8.90;99.90
17423;DHT22;8829;47.932;7.810;2023-02-15T15:45:42;8.80;99.90
17423;DHT22;8829;47.932;7.810;2023-02-15T15:48:30;8.80;99.90
17423;DHT22;8829;47.932;7.810;2023-02-15T15:51:00;8.70;99.90
17423;DHT22;8829;47.932;7.810;2023-02-15T15:53:29;8.70;99.90
17423;DHT22;8829;47.932;7.810;2023-02-15T15:56:00;8.70;99.90
17423;DHT22;8829;47.932;7.810;2023-02-15T15:58:29;8.70;99.90
17423;DHT22;8829;47.932;7.810;2023-02-15T16:01:00;8.60;99.90
17423;DHT22;8829;47.932;7.810;2023-02-15T16:03:29;8.50;99.90
17423;DHT22;8829;47.932;7.810;2023-02-15T16:05:56;8.40;99.90
17423;DHT22;8829;47.932;7.810;2023-02-15T16:08:27;8.30;99.90
17423;DHT22;8829;47.932;7.810;2023-02-15T16:10:54;8.10;99.90
17423;DHT22;8829;47.932;7.810;2023-02-15T16:13:21;7.90;99.90
17423;DHT22;8829;47.932;7.810;2023-02-15T16:15:50;7.60;99.90
17423;DHT22;8829;47.932;7.810;2023-02-15T16:18:20;7.40;99.90
17423;DHT22;8829;47.932;7.810;2023-02-15T16:20:50;7.30;99.90
17423;DHT22;8829;47.932;7.810;2023-02-15T16:23:31;7.10;99.90
17423;DHT22;8829;47.932;7.810;2023-02-15T16:26:04;7.00;99.90
17423;DHT22;8829;47.932;7.810;2023-02-15T16:28:34;6.80;99.90
17423;DHT22;8829;47.932;7.810;2023-02-15T16:31:07;6.70;99.90